sensor_id;sensor_type;location;lat;lon;timestamp;pressure;altitude;pressure_sealevel;temperature
74536;BMP180;63013;51.104;-115.370;2023-06-10T00:00:39;87113.80;;;25.00
74536;BMP180;63013;51.104;-115.370;2023-06-10T00:03:08;87109.60;;;25.00
74536;BMP180;63013;51.104;-115.370;2023-06-10T00:05:39;87112.60;;;25.00
74536;BMP180;63013;51.104;-115.370;2023-06-10T00:08:06;87109.00;;;25.00
74536;BMP180;63013;51.104;-115.370;2023-06-10T00:10:35;87109.20;;;25.00
74536;BMP180;63013;51.104;-115.370;2023-06-10T00:13:03;87111.60;;;25.00
74536;BMP180;63013;51.104;-115.370;2023-06-10T00:15:31;87105.40;;;24.96
74536;BMP180;63013;51.104;-115.370;2023-06-10T00:17:58;87106.00;;;25.00
74536;BMP180;63013;51.104;-115.370;2023-06-10T00:20:25;87106.00;;;24.96
74536;BMP180;63013;51.104;-115.370;2023-06-10T00:22:52;87105.20;;;24.96
74536;BMP180;63013;51.104;-115.370;2023-06-10T00:25:20;87116.00;;;24.96
74536;BMP180;63013;51.104;-115.370;2023-06-10T00:27:47;87107.00;;;24.92
74536;BMP180;63013;51.104;-115.370;2023-06-10T00:30:14;87110.40;;;24.94
74536;BMP180;63013;51.104;-115.370;2023-06-10T00:32:41;87111.40;;;24.90
74536;BMP180;63013;51.104;-115.370;2023-06-10T00:35:08;87113.20;;;24.90
74536;BMP180;63013;51.104;-115.370;2023-06-10T00:37:35;87126.80;;;24.90
74536;BMP180;63013;51.104;-115.370;2023-06-10T00:40:04;87132.60;;;24.90
74536;BMP180;63013;51.104;-115.370;2023-06-10T00:42:31;87137.60;;;24.90
74536;BMP180;63013;51.104;-115.370;2023-06-10T00:44:59;87135.60;;;24.90
74536;BMP180;63013;51.104;-115.370;2023-06-10T00:47:27;87138.00;;;24.90
74536;BMP180;63013;51.104;-115.370;2023-06-10T00:49:55;87147.20;;;24.90
74536;BMP180;63013;51.104;-115.370;2023-06-10T00:52:25;87165.20;;;24.90
74536;BMP180;63013;51.104;-115.370;2023-06-10T00:54:54;87158.20;;;24.90
74536;BMP180;63013;51.104;-115.370;2023-06-10T00:57:22;87162.80;;;24.90
74536;BMP180;63013;51.104;-115.370;2023-06-10T00:59:50;87159.00;;;24.90
74536;BMP180;63013;51.104;-115.370;2023-06-10T01:02:17;87159.20;;;24.90
74536;BMP180;63013;51.104;-115.370;2023-06-10T01:04:44;87164.80;;;24.90
74536;BMP180;63013;51.104;-115.370;2023-06-10T01:10:24;87167.60;;;24.90
74536;BMP180;63013;51.104;-115.370;2023-06-10T01:13:00;87171.80;;;24.90
74536;BMP180;63013;51.104;-115.370;2023-06-10T01:15:35;87175.20;;;24.84
74536;BMP180;63013;51.104;-115.370;2023-06-10T01:18:06;87186.80;;;24.82
74536;BMP180;63013;51.104;-115.370;2023-06-10T01:20:37;87199.00;;;24.80
74536;BMP180;63013;51.104;-115.370;2023-06-10T01:23:09;87215.40;;;24.80
74536;BMP180;63013;51.104;-115.370;2023-06-10T01:26:02;87223.00;;;24.80
74536;BMP180;63013;51.104;-115.370;2023-06-10T01:28:57;87224.20;;;24.80
74536;BMP180;63013;51.104;-115.370;2023-06-10T01:31:42;87224.80;;;24.80
74536;BMP180;63013;51.104;-115.370;2023-06-10T01:34:18;87228.40;;;24.80
74536;BMP180;63013;51.104;-115.370;2023-06-10T01:36:50;87232.00;;;24.80
74536;BMP180;63013;51.104;-115.370;2023-06-10T01:39:22;87232.60;;;24.80
74536;BMP180;63013;51.104;-115.370;2023-06-10T01:41:51;87230.00;;;24.80
74536;BMP180;63013;51.104;-115.370;2023-06-10T01:44:23;87229.20;;;24.80
74536;BMP180;63013;51.104;-115.370;2023-06-10T01:46:50;87228.20;;;24.80
74536;BMP180;63013;51.104;-115.370;2023-06-10T01:49:17;87228.00;;;24.80
74536;BMP180;63013;51.104;-115.370;2023-06-10T01:51:45;87227.20;;;24.80
74536;BMP180;63013;51.104;-115.370;2023-06-10T01:54:12;87227.00;;;24.80
74536;BMP180;63013;51.104;-115.370;2023-06-10T01:56:39;87225.20;;;24.84
74536;BMP180;63013;51.104;-115.370;2023-06-10T01:59:06;87223.80;;;24.84
74536;BMP180;63013;51.104;-115.370;2023-06-10T02:01:33;87224.00;;;24.88
74536;BMP180;63013;51.104;-115.370;2023-06-10T02:04:00;87216.00;;;24.80
74536;BMP180;63013;51.104;-115.370;2023-06-10T02:06:28;87217.00;;;24.82
74536;BMP180;63013;51.104;-115.370;2023-06-10T02:08:54;87212.60;;;24.80
74536;BMP180;63013;51.104;-115.370;2023-06-10T02:11:21;87212.80;;;24.80
74536;BMP180;63013;51.104;-115.370;2023-06-10T02:13:48;87211.60;;;24.84
74536;BMP180;63013;51.104;-115.370;2023-06-10T02:16:15;87219.80;;;24.82
74536;BMP180;63013;51.104;-115.370;2023-06-10T02:18:43;87213.00;;;24.84
74536;BMP180;63013;51.104;-115.370;2023-06-10T02:21:10;87210.60;;;24.82
74536;BMP180;63013;51.104;-115.370;2023-06-10T02:23:38;87210.40;;;24.86
74536;BMP180;63013;51.104;-115.370;2023-06-10T02:26:05;87205.00;;;24.82
74536;BMP180;63013;51.104;-115.370;2023-06-10T02:28:32;87203.00;;;24.82
74536;BMP180;63013;51.104;-115.370;2023-06-10T02:30:59;87203.40;;;24.80
74536;BMP180;63013;51.104;-115.370;2023-06-10T02:33:27;87206.20;;;24.80
74536;BMP180;63013;51.104;-115.370;2023-06-10T02:35:55;87209.20;;;24.80
74536;BMP180;63013;51.104;-115.370;2023-06-10T02:38:22;87214.60;;;24.82
74536;BMP180;63013;51.104;-115.370;2023-06-10T02:40:49;87219.00;;;24.80
74536;BMP180;63013;51.104;-115.370;2023-06-10T02:43:16;87220.60;;;24.86
74536;BMP180;63013;51.104;-115.370;2023-06-10T02:45:43;87224.80;;;24.86
74536;BMP180;63013;51.104;-115.370;2023-06-10T02:48:11;87225.60;;;24.86
74536;BMP180;63013;51.104;-115.370;2023-06-10T02:50:38;87225.80;;;24.90
74536;BMP180;63013;51.104;-115.370;2023-06-10T02:53:06;87224.60;;;24.90
74536;BMP180;63013;51.104;-115.370;2023-06-10T02:55:34;87225.20;;;24.90
74536;BMP180;63013;51.104;-115.370;2023-06-10T02:58:02;87216.00;;;24.90
74536;BMP180;63013;51.104;-115.370;2023-06-10T03:00:29;87217.80;;;24.90
74536;BMP180;63013;51.104;-115.370;2023-06-10T03:02:57;87217.40;;;24.88
74536;BMP180;63013;51.104;-115.370;2023-06-10T03:05:24;87209.00;;;24.84
74536;BMP180;63013;51.104;-115.370;2023-06-10T03:07:51;87202.80;;;24.82
74536;BMP180;63013;51.104;-115.370;2023-06-10T03:10:18;87202.60;;;24.80
74536;BMP180;63013;51.104;-115.370;2023-06-10T03:12:45;87195.60;;;24.80
74536;BMP180;63013;51.104;-115.370;2023-06-10T03:15:12;87188.00;;;24.80
74536;BMP180;63013;51.104;-115.370;2023-06-10T03:17:41;87187.00;;;24.80
74536;BMP180;63013;51.104;-115.370;2023-06-10T03:20:08;87187.80;;;24.80
74536;BMP180;63013;51.104;-115.370;2023-06-10T03:22:36;87189.40;;;24.80
74536;BMP180;63013;51.104;-115.370;2023-06-10T03:25:05;87187.60;;;24.80
74536;BMP180;63013;51.104;-115.370;2023-06-10T03:27:32;87187.20;;;24.80
74536;BMP180;63013;51.104;-115.370;2023-06-10T03:29:59;87185.20;;;24.80
74536;BMP180;63013;51.104;-115.370;2023-06-10T03:32:26;87184.40;;;24.80
74536;BMP180;63013;51.104;-115.370;2023-06-10T03:34:53;87181.20;;;24.80
74536;BMP180;63013;51.104;-115.370;2023-06-10T03:37:25;87178.20;;;24.80
74536;BMP180;63013;51.104;-115.370;2023-06-10T03:39:52;87178.20;;;24.80
74536;BMP180;63013;51.104;-115.370;2023-06-10T03:42:19;87177.40;;;24.80
74536;BMP180;63013;51.104;-115.370;2023-06-10T03:44:46;87180.20;;;24.80
74536;BMP180;63013;51.104;-115.370;2023-06-10T03:47:13;87177.20;;;24.80
74536;BMP180;63013;51.104;-115.370;2023-06-10T03:49:40;87177.60;;;24.80
74536;BMP180;63013;51.104;-115.370;2023-06-10T03:52:07;87178.60;;;24.80
74536;BMP180;63013;51.104;-115.370;2023-06-10T03:54:35;87173.80;;;24.80
74536;BMP180;63013;51.104;-115.370;2023-06-10T03:57:02;87175.00;;;24.80
74536;BMP180;63013;51.104;-115.370;2023-06-10T03:59:30;87176.20;;;24.80
74536;BMP180;63013;51.104;-115.370;2023-06-10T04:01:56;87173.60;;;24.80
74536;BMP180;63013;51.104;-115.370;2023-06-10T04:04:24;87173.80;;;24.80
74536;BMP180;63013;51.104;-115.370;2023-06-10T04:06:51;87167.80;;;24.80
74536;BMP180;63013;51.104;-115.370;2023-06-10T04:09:18;87167.80;;;24.80
74536;BMP180;63013;51.104;-115.370;2023-06-10T04:11:45;87168.20;;;24.80
74536;BMP180;63013;51.104;-115.370;2023-06-10T04:14:12;87174.60;;;24.80
74536;BMP180;63013;51.104;-115.370;2023-06-10T04:16:40;87172.00;;;24.80
74536;BMP180;63013;51.104;-115.370;2023-06-10T04:19:09;87172.00;;;24.80
74536;BMP180;63013;51.104;-115.370;2023-06-10T04:21:36;87169.80;;;24.80
74536;BMP180;63013;51.104;-115.370;2023-06-10T04:24:03;87172.00;;;24.80
74536;BMP180;63013;51.104;-115.370;2023-06-10T04:26:30;87172.40;;;24.80
74536;BMP180;63013;51.104;-115.370;2023-06-10T04:28:57;87172.20;;;24.80
74536;BMP180;63013;51.104;-115.370;2023-06-10T04:31:24;87181.40;;;24.80
74536;BMP180;63013;51.104;-115.370;2023-06-10T04:33:51;87179.40;;;24.80
74536;BMP180;63013;51.104;-115.370;2023-06-10T04:36:18;87174.40;;;24.80
74536;BMP180;63013;51.104;-115.370;2023-06-10T04:38:46;87179.00;;;24.80
74536;BMP180;63013;51.104;-115.370;2023-06-10T04:41:13;87177.00;;;24.80
74536;BMP180;63013;51.104;-115.370;2023-06-10T04:43:40;87178.20;;;24.80
74536;BMP180;63013;51.104;-115.370;2023-06-10T04:46:08;87179.40;;;24.80
74536;BMP180;63013;51.104;-115.370;2023-06-10T04:48:36;87176.20;;;24.80
74536;BMP180;63013;51.104;-115.370;2023-06-10T04:51:04;87176.60;;;24.80
74536;BMP180;63013;51.104;-115.370;2023-06-10T04:53:32;87177.20;;;24.78
74536;BMP180;63013;51.104;-115.370;2023-06-10T04:55:59;87176.20;;;24.80
74536;BMP180;63013;51.104;-115.370;2023-06-10T04:58:26;87180.00;;;24.76
74536;BMP180;63013;51.104;-115.370;2023-06-10T05:00:53;87178.00;;;24.76
74536;BMP180;63013;51.104;-115.370;2023-06-10T05:03:20;87173.20;;;24.74
74536;BMP180;63013;51.104;-115.370;2023-06-10T05:05:48;87175.40;;;24.70
74536;BMP180;63013;51.104;-115.370;2023-06-10T05:08:15;87170.60;;;24.70
74536;BMP180;63013;51.104;-115.370;2023-06-10T05:10:42;87172.20;;;24.70
74536;BMP180;63013;51.104;-115.370;2023-06-10T05:13:09;87176.20;;;24.70
74536;BMP180;63013;51.104;-115.370;2023-06-10T05:15:36;87173.60;;;24.70
74536;BMP180;63013;51.104;-115.370;2023-06-10T05:18:04;87171.20;;;24.70
74536;BMP180;63013;51.104;-115.370;2023-06-10T05:20:31;87166.80;;;24.70
74536;BMP180;63013;51.104;-115.370;2023-06-10T05:22:58;87165.80;;;24.70
74536;BMP180;63013;51.104;-115.370;2023-06-10T05:25:28;87171.20;;;24.70
74536;BMP180;63013;51.104;-115.370;2023-06-10T05:27:57;87168.80;;;24.70
74536;BMP180;63013;51.104;-115.370;2023-06-10T05:30:24;87170.80;;;24.70
74536;BMP180;63013;51.104;-115.370;2023-06-10T05:32:52;87172.00;;;24.70
74536;BMP180;63013;51.104;-115.370;2023-06-10T05:35:19;87169.80;;;24.70
74536;BMP180;63013;51.104;-115.370;2023-06-10T05:37:46;87170.60;;;24.70
74536;BMP180;63013;51.104;-115.370;2023-06-10T05:40:13;87171.00;;;24.70
74536;BMP180;63013;51.104;-115.370;2023-06-10T05:42:40;87168.00;;;24.70
74536;BMP180;63013;51.104;-115.370;2023-06-10T05:45:08;87167.00;;;24.66
74536;BMP180;63013;51.104;-115.370;2023-06-10T05:47:35;87164.40;;;24.70
74536;BMP180;63013;51.104;-115.370;2023-06-10T05:50:02;87160.20;;;24.62
74536;BMP180;63013;51.104;-115.370;2023-06-10T05:52:36;87165.00;;;24.62
74536;BMP180;63013;51.104;-115.370;2023-06-10T05:55:04;87163.20;;;24.60
74536;BMP180;63013;51.104;-115.370;2023-06-10T05:57:31;87159.60;;;24.60
74536;BMP180;63013;51.104;-115.370;2023-06-10T05:59:58;87157.20;;;24.64
74536;BMP180;63013;51.104;-115.370;2023-06-10T06:02:25;87153.60;;;24.60
74536;BMP180;63013;51.104;-115.370;2023-06-10T06:04:52;87152.20;;;24.60
74536;BMP180;63013;51.104;-115.370;2023-06-10T06:07:20;87153.40;;;24.60
74536;BMP180;63013;51.104;-115.370;2023-06-10T06:09:47;87155.00;;;24.60
74536;BMP180;63013;51.104;-115.370;2023-06-10T06:12:14;87154.40;;;24.60
74536;BMP180;63013;51.104;-115.370;2023-06-10T06:14:42;87157.40;;;24.60
74536;BMP180;63013;51.104;-115.370;2023-06-10T06:17:09;87160.00;;;24.60
74536;BMP180;63013;51.104;-115.370;2023-06-10T06:19:36;87153.40;;;24.60
74536;BMP180;63013;51.104;-115.370;2023-06-10T06:22:03;87148.40;;;24.60
74536;BMP180;63013;51.104;-115.370;2023-06-10T06:24:30;87150.20;;;24.60
74536;BMP180;63013;51.104;-115.370;2023-06-10T06:26:57;87152.60;;;24.60
74536;BMP180;63013;51.104;-115.370;2023-06-10T06:29:24;87152.40;;;24.60
74536;BMP180;63013;51.104;-115.370;2023-06-10T06:31:51;87149.80;;;24.60
74536;BMP180;63013;51.104;-115.370;2023-06-10T06:34:18;87147.40;;;24.58
74536;BMP180;63013;51.104;-115.370;2023-06-10T06:36:45;87149.40;;;24.56
74536;BMP180;63013;51.104;-115.370;2023-06-10T06:39:12;87146.40;;;24.58
74536;BMP180;63013;51.104;-115.370;2023-06-10T06:41:40;87152.20;;;24.54
74536;BMP180;63013;51.104;-115.370;2023-06-10T06:44:07;87147.60;;;24.50
74536;BMP180;63013;51.104;-115.370;2023-06-10T06:46:34;87143.40;;;24.50
74536;BMP180;63013;51.104;-115.370;2023-06-10T06:49:01;87147.00;;;24.50
74536;BMP180;63013;51.104;-115.370;2023-06-10T06:51:28;87145.00;;;24.50
74536;BMP180;63013;51.104;-115.370;2023-06-10T06:53:55;87145.00;;;24.50
74536;BMP180;63013;51.104;-115.370;2023-06-10T06:56:25;87146.20;;;24.50
74536;BMP180;63013;51.104;-115.370;2023-06-10T06:58:54;87141.80;;;24.50
74536;BMP180;63013;51.104;-115.370;2023-06-10T07:01:21;87142.80;;;24.50
74536;BMP180;63013;51.104;-115.370;2023-06-10T07:03:48;87141.40;;;24.50
74536;BMP180;63013;51.104;-115.370;2023-06-10T07:06:15;87139.20;;;24.50
74536;BMP180;63013;51.104;-115.370;2023-06-10T07:08:42;87140.40;;;24.50
74536;BMP180;63013;51.104;-115.370;2023-06-10T07:11:09;87143.80;;;24.50
74536;BMP180;63013;51.104;-115.370;2023-06-10T07:13:36;87144.40;;;24.50
74536;BMP180;63013;51.104;-115.370;2023-06-10T07:16:03;87140.60;;;24.50
74536;BMP180;63013;51.104;-115.370;2023-06-10T07:18:31;87145.60;;;24.46
74536;BMP180;63013;51.104;-115.370;2023-06-10T07:20:58;87138.00;;;24.42
74536;BMP180;63013;51.104;-115.370;2023-06-10T07:23:25;87135.60;;;24.40
74536;BMP180;63013;51.104;-115.370;2023-06-10T07:25:52;87136.00;;;24.40
74536;BMP180;63013;51.104;-115.370;2023-06-10T07:28:19;87138.20;;;24.40
74536;BMP180;63013;51.104;-115.370;2023-06-10T07:30:46;87135.00;;;24.40
74536;BMP180;63013;51.104;-115.370;2023-06-10T07:33:13;87131.00;;;24.40
74536;BMP180;63013;51.104;-115.370;2023-06-10T07:35:40;87131.80;;;24.40
74536;BMP180;63013;51.104;-115.370;2023-06-10T07:38:09;87131.80;;;24.40
74536;BMP180;63013;51.104;-115.370;2023-06-10T07:40:37;87133.80;;;24.40
74536;BMP180;63013;51.104;-115.370;2023-06-10T07:43:04;87134.20;;;24.40
74536;BMP180;63013;51.104;-115.370;2023-06-10T07:45:31;87133.00;;;24.40
74536;BMP180;63013;51.104;-115.370;2023-06-10T07:47:58;87131.00;;;24.40
74536;BMP180;63013;51.104;-115.370;2023-06-10T07:50:25;87127.20;;;24.38
74536;BMP180;63013;51.104;-115.370;2023-06-10T07:52:52;87125.20;;;24.30
74536;BMP180;63013;51.104;-115.370;2023-06-10T07:55:19;87125.80;;;24.30
74536;BMP180;63013;51.104;-115.370;2023-06-10T07:57:46;87128.20;;;24.30
74536;BMP180;63013;51.104;-115.370;2023-06-10T08:00:14;87131.80;;;24.30
74536;BMP180;63013;51.104;-115.370;2023-06-10T08:02:41;87128.60;;;24.30
74536;BMP180;63013;51.104;-115.370;2023-06-10T08:05:08;87126.60;;;24.30
74536;BMP180;63013;51.104;-115.370;2023-06-10T08:07:35;87129.80;;;24.30
74536;BMP180;63013;51.104;-115.370;2023-06-10T08:10:03;87130.00;;;24.30
74536;BMP180;63013;51.104;-115.370;2023-06-10T08:12:30;87132.80;;;24.30
74536;BMP180;63013;51.104;-115.370;2023-06-10T08:14:57;87130.60;;;24.30
74536;BMP180;63013;51.104;-115.370;2023-06-10T08:17:25;87132.40;;;24.30
74536;BMP180;63013;51.104;-115.370;2023-06-10T08:19:52;87132.40;;;24.28
74536;BMP180;63013;51.104;-115.370;2023-06-10T08:22:19;87129.80;;;24.26
74536;BMP180;63013;51.104;-115.370;2023-06-10T08:24:46;87126.60;;;24.20
74536;BMP180;63013;51.104;-115.370;2023-06-10T08:27:14;87129.40;;;24.20
74536;BMP180;63013;51.104;-115.370;2023-06-10T08:29:41;87129.40;;;24.20
74536;BMP180;63013;51.104;-115.370;2023-06-10T08:32:08;87130.00;;;24.20
74536;BMP180;63013;51.104;-115.370;2023-06-10T08:34:35;87129.20;;;24.20
74536;BMP180;63013;51.104;-115.370;2023-06-10T08:37:04;87125.20;;;24.20
74536;BMP180;63013;51.104;-115.370;2023-06-10T08:39:31;87122.80;;;24.20
74536;BMP180;63013;51.104;-115.370;2023-06-10T08:42:24;87124.40;;;24.20
74536;BMP180;63013;51.104;-115.370;2023-06-10T08:44:57;87124.00;;;24.20
74536;BMP180;63013;51.104;-115.370;2023-06-10T08:47:26;87125.40;;;24.20
74536;BMP180;63013;51.104;-115.370;2023-06-10T08:50:02;87127.20;;;24.20
74536;BMP180;63013;51.104;-115.370;2023-06-10T08:52:36;87126.00;;;24.20
74536;BMP180;63013;51.104;-115.370;2023-06-10T08:55:12;87123.20;;;24.12
74536;BMP180;63013;51.104;-115.370;2023-06-10T08:57:42;87119.40;;;24.14
74536;BMP180;63013;51.104;-115.370;2023-06-10T09:00:12;87128.80;;;24.10
74536;BMP180;63013;51.104;-115.370;2023-06-10T09:02:39;87130.40;;;24.10
74536;BMP180;63013;51.104;-115.370;2023-06-10T09:05:08;87115.80;;;24.10
74536;BMP180;63013;51.104;-115.370;2023-06-10T09:07:36;87112.80;;;24.10
74536;BMP180;63013;51.104;-115.370;2023-06-10T09:10:04;87114.80;;;24.10
74536;BMP180;63013;51.104;-115.370;2023-06-10T09:12:34;87109.80;;;24.10
74536;BMP180;63013;51.104;-115.370;2023-06-10T09:15:02;87112.80;;;24.10
74536;BMP180;63013;51.104;-115.370;2023-06-10T09:17:29;87109.60;;;24.10
74536;BMP180;63013;51.104;-115.370;2023-06-10T09:19:57;87110.00;;;24.10
74536;BMP180;63013;51.104;-115.370;2023-06-10T09:22:24;87108.40;;;24.10
74536;BMP180;63013;51.104;-115.370;2023-06-10T09:27:31;87106.00;;;24.02
74536;BMP180;63013;51.104;-115.370;2023-06-10T09:29:59;87117.80;;;24.00
74536;BMP180;63013;51.104;-115.370;2023-06-10T09:32:27;87114.40;;;24.00
74536;BMP180;63013;51.104;-115.370;2023-06-10T09:34:54;87112.00;;;24.00
74536;BMP180;63013;51.104;-115.370;2023-06-10T09:37:23;87110.60;;;24.00
74536;BMP180;63013;51.104;-115.370;2023-06-10T09:40:07;87110.00;;;24.00
74536;BMP180;63013;51.104;-115.370;2023-06-10T09:42:39;87107.60;;;24.00
74536;BMP180;63013;51.104;-115.370;2023-06-10T09:45:07;87104.20;;;24.00
74536;BMP180;63013;51.104;-115.370;2023-06-10T09:47:35;87107.40;;;24.00
74536;BMP180;63013;51.104;-115.370;2023-06-10T09:50:02;87104.60;;;24.00
74536;BMP180;63013;51.104;-115.370;2023-06-10T09:52:30;87098.80;;;23.94
74536;BMP180;63013;51.104;-115.370;2023-06-10T09:55:01;87090.00;;;23.94
74536;BMP180;63013;51.104;-115.370;2023-06-10T09:57:35;87086.40;;;23.90
74536;BMP180;63013;51.104;-115.370;2023-06-10T10:00:11;87080.00;;;23.90
74536;BMP180;63013;51.104;-115.370;2023-06-10T10:02:49;87080.40;;;23.90
74536;BMP180;63013;51.104;-115.370;2023-06-10T10:05:20;87081.80;;;23.90
74536;BMP180;63013;51.104;-115.370;2023-06-10T10:07:48;87081.20;;;23.90
74536;BMP180;63013;51.104;-115.370;2023-06-10T10:10:19;87082.40;;;23.90
74536;BMP180;63013;51.104;-115.370;2023-06-10T10:12:54;87092.40;;;23.90
74536;BMP180;63013;51.104;-115.370;2023-06-10T10:15:28;87101.60;;;23.84
74536;BMP180;63013;51.104;-115.370;2023-06-10T10:18:07;87102.00;;;23.80
74536;BMP180;63013;51.104;-115.370;2023-06-10T10:20:47;87104.20;;;23.80
74536;BMP180;63013;51.104;-115.370;2023-06-10T10:26:11;87103.20;;;23.80
74536;BMP180;63013;51.104;-115.370;2023-06-10T10:28:55;87101.60;;;23.80
74536;BMP180;63013;51.104;-115.370;2023-06-10T10:31:27;87096.60;;;23.80
74536;BMP180;63013;51.104;-115.370;2023-06-10T10:34:04;87098.60;;;23.80
74536;BMP180;63013;51.104;-115.370;2023-06-10T10:36:33;87100.00;;;23.80
74536;BMP180;63013;51.104;-115.370;2023-06-10T10:38:59;87096.80;;;23.80
74536;BMP180;63013;51.104;-115.370;2023-06-10T10:41:32;87101.80;;;23.80
74536;BMP180;63013;51.104;-115.370;2023-06-10T10:44:00;87106.80;;;23.76
74536;BMP180;63013;51.104;-115.370;2023-06-10T10:46:27;87109.00;;;23.70
74536;BMP180;63013;51.104;-115.370;2023-06-10T10:48:56;87106.20;;;23.70
74536;BMP180;63013;51.104;-115.370;2023-06-10T10:51:24;87103.40;;;23.70
74536;BMP180;63013;51.104;-115.370;2023-06-10T10:54:13;87102.20;;;23.70
74536;BMP180;63013;51.104;-115.370;2023-06-10T11:02:31;87105.80;;;23.70
74536;BMP180;63013;51.104;-115.370;2023-06-10T11:05:00;87103.20;;;23.70
74536;BMP180;63013;51.104;-115.370;2023-06-10T11:07:33;87099.00;;;23.70
74536;BMP180;63013;51.104;-115.370;2023-06-10T11:10:05;87100.80;;;23.68
74536;BMP180;63013;51.104;-115.370;2023-06-10T11:15:13;87095.00;;;23.60
74536;BMP180;63013;51.104;-115.370;2023-06-10T11:18:25;87090.20;;;23.60
74536;BMP180;63013;51.104;-115.370;2023-06-10T11:21:00;87086.60;;;23.60
74536;BMP180;63013;51.104;-115.370;2023-06-10T11:31:29;87070.20;;;23.58
74536;BMP180;63013;51.104;-115.370;2023-06-10T11:33:59;87070.20;;;23.56
74536;BMP180;63013;51.104;-115.370;2023-06-10T11:36:27;87068.60;;;23.50
74536;BMP180;63013;51.104;-115.370;2023-06-10T11:39:13;87066.40;;;23.50
74536;BMP180;63013;51.104;-115.370;2023-06-10T11:41:40;87064.40;;;23.50
74536;BMP180;63013;51.104;-115.370;2023-06-10T11:44:14;87068.20;;;23.50
74536;BMP180;63013;51.104;-115.370;2023-06-10T11:46:44;87072.60;;;23.50
74536;BMP180;63013;51.104;-115.370;2023-06-10T11:49:12;87071.40;;;23.50
74536;BMP180;63013;51.104;-115.370;2023-06-10T11:51:41;87068.40;;;23.50
74536;BMP180;63013;51.104;-115.370;2023-06-10T11:54:15;87072.20;;;23.50
74536;BMP180;63013;51.104;-115.370;2023-06-10T11:56:43;87071.20;;;23.50
74536;BMP180;63013;51.104;-115.370;2023-06-10T11:59:09;87071.80;;;23.48
74536;BMP180;63013;51.104;-115.370;2023-06-10T12:01:42;87074.60;;;23.46
74536;BMP180;63013;51.104;-115.370;2023-06-10T12:04:13;87074.80;;;23.40
74536;BMP180;63013;51.104;-115.370;2023-06-10T12:06:51;87076.40;;;23.40
74536;BMP180;63013;51.104;-115.370;2023-06-10T12:09:26;87076.00;;;23.40
74536;BMP180;63013;51.104;-115.370;2023-06-10T12:11:58;87079.40;;;23.40
74536;BMP180;63013;51.104;-115.370;2023-06-10T12:14:58;87082.60;;;23.40
74536;BMP180;63013;51.104;-115.370;2023-06-10T12:20:01;87080.40;;;23.40
74536;BMP180;63013;51.104;-115.370;2023-06-10T12:25:06;87076.80;;;23.34
74536;BMP180;63013;51.104;-115.370;2023-06-10T12:27:35;87086.40;;;23.30
74536;BMP180;63013;51.104;-115.370;2023-06-10T12:30:05;87083.80;;;23.30
74536;BMP180;63013;51.104;-115.370;2023-06-10T12:32:43;87082.00;;;23.30
74536;BMP180;63013;51.104;-115.370;2023-06-10T12:35:13;87079.80;;;23.30
74536;BMP180;63013;51.104;-115.370;2023-06-10T12:37:41;87078.00;;;23.30
74536;BMP180;63013;51.104;-115.370;2023-06-10T12:40:09;87074.00;;;23.30
74536;BMP180;63013;51.104;-115.370;2023-06-10T12:42:37;87070.40;;;23.30
74536;BMP180;63013;51.104;-115.370;2023-06-10T12:45:06;87067.40;;;23.30
74536;BMP180;63013;51.104;-115.370;2023-06-10T12:47:37;87071.60;;;23.30
74536;BMP180;63013;51.104;-115.370;2023-06-10T12:50:08;87069.00;;;23.30
74536;BMP180;63013;51.104;-115.370;2023-06-10T12:52:35;87067.00;;;23.26
74536;BMP180;63013;51.104;-115.370;2023-06-10T12:55:02;87073.60;;;23.24
74536;BMP180;63013;51.104;-115.370;2023-06-10T12:57:30;87068.20;;;23.22
74536;BMP180;63013;51.104;-115.370;2023-06-10T12:59:57;87069.60;;;23.20
74536;BMP180;63013;51.104;-115.370;2023-06-10T13:02:30;87073.80;;;23.20
74536;BMP180;63013;51.104;-115.370;2023-06-10T13:04:58;87072.20;;;23.20
74536;BMP180;63013;51.104;-115.370;2023-06-10T13:07:25;87067.40;;;23.20
74536;BMP180;63013;51.104;-115.370;2023-06-10T13:09:53;87066.60;;;23.20
74536;BMP180;63013;51.104;-115.370;2023-06-10T13:12:20;87063.60;;;23.20
74536;BMP180;63013;51.104;-115.370;2023-06-10T13:14:47;87069.60;;;23.20
74536;BMP180;63013;51.104;-115.370;2023-06-10T13:17:14;87068.40;;;23.20
74536;BMP180;63013;51.104;-115.370;2023-06-10T13:19:41;87071.20;;;23.20
74536;BMP180;63013;51.104;-115.370;2023-06-10T13:22:08;87067.40;;;23.20
74536;BMP180;63013;51.104;-115.370;2023-06-10T13:24:36;87065.40;;;23.20
74536;BMP180;63013;51.104;-115.370;2023-06-10T13:27:06;87062.40;;;23.18
74536;BMP180;63013;51.104;-115.370;2023-06-10T13:29:33;87056.60;;;23.18
74536;BMP180;63013;51.104;-115.370;2023-06-10T13:32:00;87055.60;;;23.12
74536;BMP180;63013;51.104;-115.370;2023-06-10T13:34:27;87059.60;;;23.10
74536;BMP180;63013;51.104;-115.370;2023-06-10T13:36:55;87060.80;;;23.10
74536;BMP180;63013;51.104;-115.370;2023-06-10T13:39:21;87056.60;;;23.10
74536;BMP180;63013;51.104;-115.370;2023-06-10T13:41:49;87052.60;;;23.10
74536;BMP180;63013;51.104;-115.370;2023-06-10T13:44:15;87048.40;;;23.10
74536;BMP180;63013;51.104;-115.370;2023-06-10T13:46:43;87048.40;;;23.10
74536;BMP180;63013;51.104;-115.370;2023-06-10T13:49:09;87047.60;;;23.10
74536;BMP180;63013;51.104;-115.370;2023-06-10T13:51:37;87049.60;;;23.10
74536;BMP180;63013;51.104;-115.370;2023-06-10T13:54:04;87048.00;;;23.10
74536;BMP180;63013;51.104;-115.370;2023-06-10T13:56:31;87045.40;;;23.10
74536;BMP180;63013;51.104;-115.370;2023-06-10T13:59:01;87048.00;;;23.08
74536;BMP180;63013;51.104;-115.370;2023-06-10T14:01:27;87044.40;;;23.02
74536;BMP180;63013;51.104;-115.370;2023-06-10T14:03:54;87047.60;;;23.02
74536;BMP180;63013;51.104;-115.370;2023-06-10T14:06:22;87044.40;;;23.02
74536;BMP180;63013;51.104;-115.370;2023-06-10T14:08:49;87049.40;;;23.00
74536;BMP180;63013;51.104;-115.370;2023-06-10T14:11:16;87053.60;;;23.00